sensor_id;sensor_type;location;lat;lon;timestamp;temperature;humidity
49222;DHT22;35047;37.588;-122.048;2023-12-14T00:01:35;22.00;56.40
49222;DHT22;35047;37.588;-122.048;2023-12-14T00:04:02;21.90;56.70
49222;DHT22;35047;37.588;-122.048;2023-12-14T00:06:30;21.90;56.70
49222;DHT22;35047;37.588;-122.048;2023-12-14T00:08:57;21.80;56.70
49222;DHT22;35047;37.588;-122.048;2023-12-14T00:11:23;21.80;57.20
49222;DHT22;35047;37.588;-122.048;2023-12-14T00:13:50;21.70;57.70
49222;DHT22;35047;37.588;-122.048;2023-12-14T00:16:16;21.60;57.60
49222;DHT22;35047;37.588;-122.048;2023-12-14T00:18:43;21.60;57.80
49222;DHT22;35047;37.588;-122.048;2023-12-14T00:21:09;21.50;58.30
49222;DHT22;35047;37.588;-122.048;2023-12-14T00:23:35;21.40;58.40
49222;DHT22;35047;37.588;-122.048;2023-12-14T00:26:02;21.40;58.50
49222;DHT22;35047;37.588;-122.048;2023-12-14T00:28:29;21.30;58.80
49222;DHT22;35047;37.588;-122.048;2023-12-14T00:30:55;21.20;59.00
49222;DHT22;35047;37.588;-122.048;2023-12-14T00:33:22;21.10;59.30
49222;DHT22;35047;37.588;-122.048;2023-12-14T00:35:49;21.10;59.60
49222;DHT22;35047;37.588;-122.048;2023-12-14T00:38:15;21.00;59.80
49222;DHT22;35047;37.588;-122.048;2023-12-14T00:40:42;20.90;59.60
49222;DHT22;35047;37.588;-122.048;2023-12-14T00:43:08;20.80;59.80
49222;DHT22;35047;37.588;-122.048;2023-12-14T00:45:35;20.80;59.90
49222;DHT22;35047;37.588;-122.048;2023-12-14T00:48:01;20.70;60.00
49222;DHT22;35047;37.588;-122.048;2023-12-14T00:50:28;20.60;60.00
49222;DHT22;35047;37.588;-122.048;2023-12-14T00:52:54;20.60;60.10
49222;DHT22;35047;37.588;-122.048;2023-12-14T00:55:20;20.40;60.40
49222;DHT22;35047;37.588;-122.048;2023-12-14T00:57:48;20.40;60.60
49222;DHT22;35047;37.588;-122.048;2023-12-14T01:00:15;20.30;60.80
49222;DHT22;35047;37.588;-122.048;2023-12-14T01:02:41;20.20;61.00
49222;DHT22;35047;37.588;-122.048;2023-12-14T01:05:08;20.10;61.10
49222;DHT22;35047;37.588;-122.048;2023-12-14T01:07:34;20.10;61.40
49222;DHT22;35047;37.588;-122.048;2023-12-14T01:10:01;20.00;61.50
49222;DHT22;35047;37.588;-122.048;2023-12-14T01:12:28;19.90;61.70
49222;DHT22;35047;37.588;-122.048;2023-12-14T01:14:54;19.80;61.90
49222;DHT22;35047;37.588;-122.048;2023-12-14T01:17:21;19.70;62.10
49222;DHT22;35047;37.588;-122.048;2023-12-14T01:19:47;19.70;62.30
49222;DHT22;35047;37.588;-122.048;2023-12-14T01:22:13;19.60;62.50
49222;DHT22;35047;37.588;-122.048;2023-12-14T01:24:40;19.50;62.60
49222;DHT22;35047;37.588;-122.048;2023-12-14T01:27:06;19.40;62.50
49222;DHT22;35047;37.588;-122.048;2023-12-14T01:29:35;19.30;62.50
49222;DHT22;35047;37.588;-122.048;2023-12-14T01:32:01;19.20;62.70
49222;DHT22;35047;37.588;-122.048;2023-12-14T01:34:28;19.20;62.80
49222;DHT22;35047;37.588;-122.048;2023-12-14T01:36:54;19.20;63.00
49222;DHT22;35047;37.588;-122.048;2023-12-14T01:39:21;19.10;63.00
49222;DHT22;35047;37.588;-122.048;2023-12-14T01:41:47;19.00;63.30
49222;DHT22;35047;37.588;-122.048;2023-12-14T01:44:15;19.00;63.60
49222;DHT22;35047;37.588;-122.048;2023-12-14T01:46:41;18.90;63.70
49222;DHT22;35047;37.588;-122.048;2023-12-14T01:49:08;18.80;63.90
49222;DHT22;35047;37.588;-122.048;2023-12-14T01:51:34;18.80;64.00
49222;DHT22;35047;37.588;-122.048;2023-12-14T01:54:01;18.70;64.00
49222;DHT22;35047;37.588;-122.048;2023-12-14T01:56:27;18.70;64.90
49222;DHT22;35047;37.588;-122.048;2023-12-14T01:58:54;18.50;64.40
49222;DHT22;35047;37.588;-122.048;2023-12-14T02:01:28;18.50;64.60
49222;DHT22;35047;37.588;-122.048;2023-12-14T02:04:01;18.50;65.00
49222;DHT22;35047;37.588;-122.048;2023-12-14T02:06:27;18.40;65.00
49222;DHT22;35047;37.588;-122.048;2023-12-14T02:08:54;18.30;65.10
49222;DHT22;35047;37.588;-122.048;2023-12-14T02:11:20;18.30;65.20
49222;DHT22;35047;37.588;-122.048;2023-12-14T02:13:47;18.20;65.40
49222;DHT22;35047;37.588;-122.048;2023-12-14T02:16:13;18.20;65.60
49222;DHT22;35047;37.588;-122.048;2023-12-14T02:18:41;18.10;65.70
49222;DHT22;35047;37.588;-122.048;2023-12-14T02:21:07;18.10;65.70
49222;DHT22;35047;37.588;-122.048;2023-12-14T02:23:33;18.00;65.80
49222;DHT22;35047;37.588;-122.048;2023-12-14T02:26:00;17.90;66.10
49222;DHT22;35047;37.588;-122.048;2023-12-14T02:28:27;17.90;66.20
49222;DHT22;35047;37.588;-122.048;2023-12-14T02:30:53;17.80;66.50
49222;DHT22;35047;37.588;-122.048;2023-12-14T02:33:20;17.80;66.40
49222;DHT22;35047;37.588;-122.048;2023-12-14T02:35:47;17.80;66.40
49222;DHT22;35047;37.588;-122.048;2023-12-14T02:38:13;17.70;66.40
49222;DHT22;35047;37.588;-122.048;2023-12-14T02:40:39;17.70;66.60
49222;DHT22;35047;37.588;-122.048;2023-12-14T02:43:06;17.60;66.60
49222;DHT22;35047;37.588;-122.048;2023-12-14T02:45:32;17.60;66.70
49222;DHT22;35047;37.588;-122.048;2023-12-14T02:47:59;17.60;66.90
49222;DHT22;35047;37.588;-122.048;2023-12-14T02:50:25;17.50;67.00
49222;DHT22;35047;37.588;-122.048;2023-12-14T02:52:52;17.50;67.30
49222;DHT22;35047;37.588;-122.048;2023-12-14T02:55:18;17.40;67.40
49222;DHT22;35047;37.588;-122.048;2023-12-14T02:57:44;17.40;67.70
49222;DHT22;35047;37.588;-122.048;2023-12-14T03:00:12;17.40;67.90
49222;DHT22;35047;37.588;-122.048;2023-12-14T03:02:38;17.40;67.90
49222;DHT22;35047;37.588;-122.048;2023-12-14T03:05:08;17.30;68.20
49222;DHT22;35047;37.588;-122.048;2023-12-14T03:07:35;17.30;68.30
49222;DHT22;35047;37.588;-122.048;2023-12-14T03:10:03;17.30;68.40
49222;DHT22;35047;37.588;-122.048;2023-12-14T03:12:29;17.20;69.20
49222;DHT22;35047;37.588;-122.048;2023-12-14T03:14:56;17.20;68.80
49222;DHT22;35047;37.588;-122.048;2023-12-14T03:17:22;17.10;68.90
49222;DHT22;35047;37.588;-122.048;2023-12-14T03:19:49;17.10;69.20
49222;DHT22;35047;37.588;-122.048;2023-12-14T03:22:15;17.10;69.50
49222;DHT22;35047;37.588;-122.048;2023-12-14T03:24:42;17.10;69.50
49222;DHT22;35047;37.588;-122.048;2023-12-14T03:27:08;17.10;69.50
49222;DHT22;35047;37.588;-122.048;2023-12-14T03:29:35;17.00;69.60
49222;DHT22;35047;37.588;-122.048;2023-12-14T03:32:02;17.00;69.70
49222;DHT22;35047;37.588;-122.048;2023-12-14T03:34:28;17.00;69.90
49222;DHT22;35047;37.588;-122.048;2023-12-14T03:36:55;17.00;70.20
49222;DHT22;35047;37.588;-122.048;2023-12-14T03:39:21;16.90;70.30
49222;DHT22;35047;37.588;-122.048;2023-12-14T03:41:48;16.90;70.40
49222;DHT22;35047;37.588;-122.048;2023-12-14T03:44:15;16.90;70.50
49222;DHT22;35047;37.588;-122.048;2023-12-14T03:46:41;16.90;70.40
49222;DHT22;35047;37.588;-122.048;2023-12-14T03:49:08;16.90;70.60
49222;DHT22;35047;37.588;-122.048;2023-12-14T03:51:34;16.90;70.50
49222;DHT22;35047;37.588;-122.048;2023-12-14T03:54:01;16.80;70.70
49222;DHT22;35047;37.588;-122.048;2023-12-14T03:56:27;16.80;70.70
49222;DHT22;35047;37.588;-122.048;2023-12-14T03:58:54;16.80;70.80
49222;DHT22;35047;37.588;-122.048;2023-12-14T04:01:21;16.70;70.70
49222;DHT22;35047;37.588;-122.048;2023-12-14T04:03:47;16.70;71.10
49222;DHT22;35047;37.588;-122.048;2023-12-14T04:06:14;16.70;71.20
49222;DHT22;35047;37.588;-122.048;2023-12-14T04:08:41;16.70;71.00
49222;DHT22;35047;37.588;-122.048;2023-12-14T04:11:08;16.60;71.10
49222;DHT22;35047;37.588;-122.048;2023-12-14T04:13:35;16.60;71.00
49222;DHT22;35047;37.588;-122.048;2023-12-14T04:16:02;16.60;71.00
49222;DHT22;35047;37.588;-122.048;2023-12-14T04:18:29;16.50;71.10
49222;DHT22;35047;37.588;-122.048;2023-12-14T04:20:56;16.50;71.20
49222;DHT22;35047;37.588;-122.048;2023-12-14T04:23:23;16.50;71.10
49222;DHT22;35047;37.588;-122.048;2023-12-14T04:25:49;16.40;71.70
49222;DHT22;35047;37.588;-122.048;2023-12-14T04:28:15;16.40;71.20
49222;DHT22;35047;37.588;-122.048;2023-12-14T04:30:42;16.40;71.10
49222;DHT22;35047;37.588;-122.048;2023-12-14T04:33:08;16.30;71.10
49222;DHT22;35047;37.588;-122.048;2023-12-14T04:35:35;16.30;71.20
49222;DHT22;35047;37.588;-122.048;2023-12-14T04:38:02;16.30;71.10
49222;DHT22;35047;37.588;-122.048;2023-12-14T04:40:29;16.30;71.10
49222;DHT22;35047;37.588;-122.048;2023-12-14T04:42:55;16.20;71.10
49222;DHT22;35047;37.588;-122.048;2023-12-14T04:45:21;16.20;71.10
49222;DHT22;35047;37.588;-122.048;2023-12-14T04:47:48;16.20;70.80
49222;DHT22;35047;37.588;-122.048;2023-12-14T04:50:14;16.10;70.40
49222;DHT22;35047;37.588;-122.048;2023-12-14T04:52:42;16.10;70.50
49222;DHT22;35047;37.588;-122.048;2023-12-14T04:55:11;16.10;70.60
49222;DHT22;35047;37.588;-122.048;2023-12-14T04:57:37;16.00;70.60
49222;DHT22;35047;37.588;-122.048;2023-12-14T05:00:05;16.00;70.90
49222;DHT22;35047;37.588;-122.048;2023-12-14T05:02:31;16.00;70.90
49222;DHT22;35047;37.588;-122.048;2023-12-14T05:04:58;16.00;70.90
49222;DHT22;35047;37.588;-122.048;2023-12-14T05:07:25;15.90;70.80
49222;DHT22;35047;37.588;-122.048;2023-12-14T05:09:52;15.80;70.80
49222;DHT22;35047;37.588;-122.048;2023-12-14T05:12:18;15.80;70.80
49222;DHT22;35047;37.588;-122.048;2023-12-14T05:14:45;15.80;70.80
49222;DHT22;35047;37.588;-122.048;2023-12-14T05:17:11;15.70;70.60
49222;DHT22;35047;37.588;-122.048;2023-12-14T05:19:37;15.70;70.50
49222;DHT22;35047;37.588;-122.048;2023-12-14T05:22:04;15.70;70.40
49222;DHT22;35047;37.588;-122.048;2023-12-14T05:24:30;15.60;70.70
49222;DHT22;35047;37.588;-122.048;2023-12-14T05:26:57;15.60;70.70
49222;DHT22;35047;37.588;-122.048;2023-12-14T05:29:23;15.60;70.80
49222;DHT22;35047;37.588;-122.048;2023-12-14T05:31:50;15.50;70.80
49222;DHT22;35047;37.588;-122.048;2023-12-14T05:34:16;15.50;71.00
49222;DHT22;35047;37.588;-122.048;2023-12-14T05:36:43;15.50;71.10
49222;DHT22;35047;37.588;-122.048;2023-12-14T05:39:09;15.50;71.20
49222;DHT22;35047;37.588;-122.048;2023-12-14T05:41:45;15.40;71.40
49222;DHT22;35047;37.588;-122.048;2023-12-14T05:44:11;15.40;71.60
49222;DHT22;35047;37.588;-122.048;2023-12-14T05:46:37;15.30;71.60
49222;DHT22;35047;37.588;-122.048;2023-12-14T05:49:04;15.30;71.40
49222;DHT22;35047;37.588;-122.048;2023-12-14T05:51:31;15.30;71.50
49222;DHT22;35047;37.588;-122.048;2023-12-14T05:53:58;15.20;71.50
49222;DHT22;35047;37.588;-122.048;2023-12-14T05:56:25;15.20;71.60
49222;DHT22;35047;37.588;-122.048;2023-12-14T05:58:52;15.20;71.90
49222;DHT22;35047;37.588;-122.048;2023-12-14T06:01:19;15.20;72.00
49222;DHT22;35047;37.588;-122.048;2023-12-14T06:03:45;15.10;72.00
49222;DHT22;35047;37.588;-122.048;2023-12-14T06:06:12;15.10;72.10
49222;DHT22;35047;37.588;-122.048;2023-12-14T06:08:42;15.00;72.20
49222;DHT22;35047;37.588;-122.048;2023-12-14T06:11:09;15.00;72.50
49222;DHT22;35047;37.588;-122.048;2023-12-14T06:13:35;15.00;72.60
49222;DHT22;35047;37.588;-122.048;2023-12-14T06:16:02;15.00;72.80
49222;DHT22;35047;37.588;-122.048;2023-12-14T06:18:28;14.90;72.70
49222;DHT22;35047;37.588;-122.048;2023-12-14T06:20:55;14.90;72.70
49222;DHT22;35047;37.588;-122.048;2023-12-14T06:23:22;14.90;72.90
49222;DHT22;35047;37.588;-122.048;2023-12-14T06:25:49;14.90;73.10
49222;DHT22;35047;37.588;-122.048;2023-12-14T06:28:15;14.80;73.20
49222;DHT22;35047;37.588;-122.048;2023-12-14T06:30:42;14.80;73.30
49222;DHT22;35047;37.588;-122.048;2023-12-14T06:33:08;14.80;73.20
49222;DHT22;35047;37.588;-122.048;2023-12-14T06:35:34;14.80;73.30
49222;DHT22;35047;37.588;-122.048;2023-12-14T06:38:01;14.80;73.50
49222;DHT22;35047;37.588;-122.048;2023-12-14T06:40:27;14.80;73.40
49222;DHT22;35047;37.588;-122.048;2023-12-14T06:42:54;14.70;73.40
49222;DHT22;35047;37.588;-122.048;2023-12-14T06:45:20;14.70;73.40
49222;DHT22;35047;37.588;-122.048;2023-12-14T06:47:47;14.70;73.50
49222;DHT22;35047;37.588;-122.048;2023-12-14T06:50:13;14.70;73.60
49222;DHT22;35047;37.588;-122.048;2023-12-14T06:52:40;14.60;73.40
49222;DHT22;35047;37.588;-122.048;2023-12-14T06:55:06;14.60;73.40
49222;DHT22;35047;37.588;-122.048;2023-12-14T06:57:33;14.60;73.60
49222;DHT22;35047;37.588;-122.048;2023-12-14T06:59:59;14.60;73.80
49222;DHT22;35047;37.588;-122.048;2023-12-14T07:02:26;14.50;73.80
49222;DHT22;35047;37.588;-122.048;2023-12-14T07:04:52;14.50;73.90
49222;DHT22;35047;37.588;-122.048;2023-12-14T07:07:19;14.50;73.90
49222;DHT22;35047;37.588;-122.048;2023-12-14T07:09:45;14.50;74.10
49222;DHT22;35047;37.588;-122.048;2023-12-14T07:12:12;14.50;74.30
49222;DHT22;35047;37.588;-122.048;2023-12-14T07:14:39;14.40;74.20
49222;DHT22;35047;37.588;-122.048;2023-12-14T07:17:06;14.40;74.40
49222;DHT22;35047;37.588;-122.048;2023-12-14T07:19:32;14.40;74.50
49222;DHT22;35047;37.588;-122.048;2023-12-14T07:21:59;14.40;74.50
49222;DHT22;35047;37.588;-122.048;2023-12-14T07:24:25;14.40;74.50
49222;DHT22;35047;37.588;-122.048;2023-12-14T07:26:52;14.30;74.50
49222;DHT22;35047;37.588;-122.048;2023-12-14T07:29:18;14.30;74.70
49222;DHT22;35047;37.588;-122.048;2023-12-14T07:31:45;14.30;75.00
49222;DHT22;35047;37.588;-122.048;2023-12-14T07:34:11;14.30;75.20
49222;DHT22;35047;37.588;-122.048;2023-12-14T07:36:38;14.30;75.20
49222;DHT22;35047;37.588;-122.048;2023-12-14T07:39:04;14.30;75.20
49222;DHT22;35047;37.588;-122.048;2023-12-14T07:41:31;14.30;75.20
49222;DHT22;35047;37.588;-122.048;2023-12-14T07:43:58;14.20;75.30
49222;DHT22;35047;37.588;-122.048;2023-12-14T07:46:24;14.20;75.30
49222;DHT22;35047;37.588;-122.048;2023-12-14T07:48:51;14.20;75.40
49222;DHT22;35047;37.588;-122.048;2023-12-14T07:51:17;14.20;75.40
49222;DHT22;35047;37.588;-122.048;2023-12-14T07:53:44;14.20;75.40
49222;DHT22;35047;37.588;-122.048;2023-12-14T07:56:12;14.20;75.50
49222;DHT22;35047;37.588;-122.048;2023-12-14T07:58:39;14.10;75.50
49222;DHT22;35047;37.588;-122.048;2023-12-14T08:01:06;14.10;75.60
49222;DHT22;35047;37.588;-122.048;2023-12-14T08:03:32;14.10;75.80
49222;DHT22;35047;37.588;-122.048;2023-12-14T08:05:58;14.10;75.70
49222;DHT22;35047;37.588;-122.048;2023-12-14T08:08:25;14.10;75.50
49222;DHT22;35047;37.588;-122.048;2023-12-14T08:10:52;14.00;75.10
49222;DHT22;35047;37.588;-122.048;2023-12-14T08:13:18;14.00;75.10
49222;DHT22;35047;37.588;-122.048;2023-12-14T08:15:45;14.00;75.20
49222;DHT22;35047;37.588;-122.048;2023-12-14T08:18:11;14.00;75.20
49222;DHT22;35047;37.588;-122.048;2023-12-14T08:20:38;14.00;75.30
49222;DHT22;35047;37.588;-122.048;2023-12-14T08:23:04;13.90;75.20
49222;DHT22;35047;37.588;-122.048;2023-12-14T08:25:31;14.00;75.20
49222;DHT22;35047;37.588;-122.048;2023-12-14T08:27:57;14.00;75.40
49222;DHT22;35047;37.588;-122.048;2023-12-14T08:30:24;13.90;75.20
49222;DHT22;35047;37.588;-122.048;2023-12-14T08:32:50;13.90;75.30
49222;DHT22;35047;37.588;-122.048;2023-12-14T08:35:17;13.90;75.30
49222;DHT22;35047;37.588;-122.048;2023-12-14T08:37:43;13.90;75.50
49222;DHT22;35047;37.588;-122.048;2023-12-14T08:40:10;13.80;75.60
49222;DHT22;35047;37.588;-122.048;2023-12-14T08:42:36;13.80;75.50
49222;DHT22;35047;37.588;-122.048;2023-12-14T08:45:03;13.80;75.30
49222;DHT22;35047;37.588;-122.048;2023-12-14T08:47:30;13.80;75.20
49222;DHT22;35047;37.588;-122.048;2023-12-14T08:49:56;13.80;75.00
49222;DHT22;35047;37.588;-122.048;2023-12-14T08:52:23;13.70;75.00
49222;DHT22;35047;37.588;-122.048;2023-12-14T08:54:49;13.70;75.10
49222;DHT22;35047;37.588;-122.048;2023-12-14T08:57:15;13.70;75.20
49222;DHT22;35047;37.588;-122.048;2023-12-14T08:59:42;13.70;75.20
49222;DHT22;35047;37.588;-122.048;2023-12-14T09:02:08;13.70;75.20
49222;DHT22;35047;37.588;-122.048;2023-12-14T09:04:35;13.60;75.30
49222;DHT22;35047;37.588;-122.048;2023-12-14T09:07:02;13.60;75.40
49222;DHT22;35047;37.588;-122.048;2023-12-14T09:09:30;13.60;75.30
49222;DHT22;35047;37.588;-122.048;2023-12-14T09:11:57;13.60;75.10
49222;DHT22;35047;37.588;-122.048;2023-12-14T09:14:24;13.50;74.80
49222;DHT22;35047;37.588;-122.048;2023-12-14T09:16:50;13.50;74.90
49222;DHT22;35047;37.588;-122.048;2023-12-14T09:19:17;13.50;75.00
49222;DHT22;35047;37.588;-122.048;2023-12-14T09:21:44;13.50;75.20
49222;DHT22;35047;37.588;-122.048;2023-12-14T09:24:11;13.50;75.10
49222;DHT22;35047;37.588;-122.048;2023-12-14T09:26:37;13.50;75.00
49222;DHT22;35047;37.588;-122.048;2023-12-14T09:29:04;13.40;75.30
49222;DHT22;35047;37.588;-122.048;2023-12-14T09:31:30;13.40;75.40
49222;DHT22;35047;37.588;-122.048;2023-12-14T09:33:56;13.40;75.50
49222;DHT22;35047;37.588;-122.048;2023-12-14T09:36:23;13.40;75.60
49222;DHT22;35047;37.588;-122.048;2023-12-14T09:38:50;13.30;75.60
49222;DHT22;35047;37.588;-122.048;2023-12-14T09:41:16;13.30;75.50
49222;DHT22;35047;37.588;-122.048;2023-12-14T09:43:43;13.30;75.60
49222;DHT22;35047;37.588;-122.048;2023-12-14T09:46:11;13.30;75.70
49222;DHT22;35047;37.588;-122.048;2023-12-14T09:48:39;13.20;75.60
49222;DHT22;35047;37.588;-122.048;2023-12-14T09:51:05;13.20;75.60
49222;DHT22;35047;37.588;-122.048;2023-12-14T09:53:32;13.20;75.60
49222;DHT22;35047;37.588;-122.048;2023-12-14T09:55:59;13.20;75.70
49222;DHT22;35047;37.588;-122.048;2023-12-14T09:58:25;13.10;75.80
49222;DHT22;35047;37.588;-122.048;2023-12-14T10:00:51;13.10;75.80
49222;DHT22;35047;37.588;-122.048;2023-12-14T10:03:26;13.10;75.90
49222;DHT22;35047;37.588;-122.048;2023-12-14T10:05:58;13.10;75.90
49222;DHT22;35047;37.588;-122.048;2023-12-14T10:08:26;13.10;75.80
49222;DHT22;35047;37.588;-122.048;2023-12-14T10:10:53;13.10;75.90
49222;DHT22;35047;37.588;-122.048;2023-12-14T10:13:36;13.00;75.70
49222;DHT22;35047;37.588;-122.048;2023-12-14T10:16:03;13.00;75.60
49222;DHT22;35047;37.588;-122.048;2023-12-14T10:18:32;13.00;75.60
49222;DHT22;35047;37.588;-122.048;2023-12-14T10:21:02;12.90;75.40
49222;DHT22;35047;37.588;-122.048;2023-12-14T10:23:28;12.90;75.60
49222;DHT22;35047;37.588;-122.048;2023-12-14T10:25:55;12.90;75.80
49222;DHT22;35047;37.588;-122.048;2023-12-14T10:28:22;12.90;76.00
49222;DHT22;35047;37.588;-122.048;2023-12-14T10:30:50;12.90;76.00
49222;DHT22;35047;37.588;-122.048;2023-12-14T10:33:16;12.80;76.00
49222;DHT22;35047;37.588;-122.048;2023-12-14T10:35:43;12.80;76.10
49222;DHT22;35047;37.588;-122.048;2023-12-14T10:38:12;12.80;76.10
49222;DHT22;35047;37.588;-122.048;2023-12-14T10:40:41;12.80;76.00
49222;DHT22;35047;37.588;-122.048;2023-12-14T10:43:11;12.80;75.90
49222;DHT22;35047;37.588;-122.048;2023-12-14T10:45:38;12.80;76.00
49222;DHT22;35047;37.588;-122.048;2023-12-14T10:48:06;12.70;75.80
49222;DHT22;35047;37.588;-122.048;2023-12-14T10:50:34;12.70;75.70
49222;DHT22;35047;37.588;-122.048;2023-12-14T10:53:03;12.70;75.70
49222;DHT22;35047;37.588;-122.048;2023-12-14T10:55:45;12.70;75.90
49222;DHT22;35047;37.588;-122.048;2023-12-14T10:58:13;12.70;76.30
49222;DHT22;35047;37.588;-122.048;2023-12-14T11:00:40;12.70;76.20
49222;DHT22;35047;37.588;-122.048;2023-12-14T11:03:12;12.70;76.20
49222;DHT22;35047;37.588;-122.048;2023-12-14T11:05:38;12.60;76.20
49222;DHT22;35047;37.588;-122.048;2023-12-14T11:08:06;12.60;76.20
49222;DHT22;35047;37.588;-122.048;2023-12-14T11:11:03;12.60;76.20
49222;DHT22;35047;37.588;-122.048;2023-12-14T11:13:37;12.60;76.30
49222;DHT22;35047;37.588;-122.048;2023-12-14T11:16:04;12.60;76.10
49222;DHT22;35047;37.588;-122.048;2023-12-14T11:18:31;12.50;76.20
49222;DHT22;35047;37.588;-122.048;2023-12-14T11:21:02;12.50;76.00
49222;DHT22;35047;37.588;-122.048;2023-12-14T11:23:31;12.50;76.30
49222;DHT22;35047;37.588;-122.048;2023-12-14T11:26:03;12.50;76.10
49222;DHT22;35047;37.588;-122.048;2023-12-14T11:28:40;12.50;76.30
49222;DHT22;35047;37.588;-122.048;2023-12-14T11:31:13;12.50;76.50
49222;DHT22;35047;37.588;-122.048;2023-12-14T11:33:39;12.40;76.40
49222;DHT22;35047;37.588;-122.048;2023-12-14T11:36:06;12.40;76.30
49222;DHT22;35047;37.588;-122.048;2023-12-14T11:38:35;12.40;76.40
49222;DHT22;35047;37.588;-122.048;2023-12-14T11:41:01;12.40;76.40
49222;DHT22;35047;37.588;-122.048;2023-12-14T11:43:28;12.40;76.40
49222;DHT22;35047;37.588;-122.048;2023-12-14T11:45:55;12.40;76.40
49222;DHT22;35047;37.588;-122.048;2023-12-14T11:48:22;12.30;76.40
49222;DHT22;35047;37.588;-122.048;2023-12-14T11:50:48;12.40;76.60
49222;DHT22;35047;37.588;-122.048;2023-12-14T11:53:15;12.30;76.90
49222;DHT22;35047;37.588;-122.048;2023-12-14T11:55:43;12.30;76.90
49222;DHT22;35047;37.588;-122.048;2023-12-14T11:58:14;12.30;76.90
49222;DHT22;35047;37.588;-122.048;2023-12-14T12:00:41;12.30;76.90
49222;DHT22;35047;37.588;-122.048;2023-12-14T12:03:09;12.20;76.80
49222;DHT22;35047;37.588;-122.048;2023-12-14T12:05:40;12.30;76.90
49222;DHT22;35047;37.588;-122.048;2023-12-14T12:08:08;12.20;76.90
49222;DHT22;35047;37.588;-122.048;2023-12-14T12:10:35;12.20;76.80
49222;DHT22;35047;37.588;-122.048;2023-12-14T12:13:02;12.20;76.80
49222;DHT22;35047;37.588;-122.048;2023-12-14T12:15:32;12.20;78.10
49222;DHT22;35047;37.588;-122.048;2023-12-14T12:18:12;12.20;79.80
49222;DHT22;35047;37.588;-122.048;2023-12-14T12:20:39;12.20;80.50
49222;DHT22;35047;37.588;-122.048;2023-12-14T12:23:06;12.20;81.00
49222;DHT22;35047;37.588;-122.048;2023-12-14T12:25:33;12.20;80.10
49222;DHT22;35047;37.588;-122.048;2023-12-14T12:28:01;12.20;79.50
49222;DHT22;35047;37.588;-122.048;2023-12-14T12:30:29;12.20;79.00
49222;DHT22;35047;37.588;-122.048;2023-12-14T12:32:56;12.20;78.70
49222;DHT22;35047;37.588;-122.048;2023-12-14T12:35:23;12.20;78.80
49222;DHT22;35047;37.588;-122.048;2023-12-14T12:37:51;12.10;79.10
49222;DHT22;35047;37.588;-122.048;2023-12-14T12:40:24;12.20;79.50
49222;DHT22;35047;37.588;-122.048;2023-12-14T12:42:55;12.10;79.50
49222;DHT22;35047;37.588;-122.048;2023-12-14T12:45:22;12.10;79.30
49222;DHT22;35047;37.588;-122.048;2023-12-14T12:47:51;12.10;79.00
49222;DHT22;35047;37.588;-122.048;2023-12-14T12:50:18;12.00;78.90
49222;DHT22;35047;37.588;-122.048;2023-12-14T12:52:44;12.00;79.00
49222;DHT22;35047;37.588;-122.048;2023-12-14T12:55:14;12.00;78.90
49222;DHT22;35047;37.588;-122.048;2023-12-14T12:57:41;12.00;78.70
49222;DHT22;35047;37.588;-122.048;2023-12-14T13:00:09;12.00;78.60
49222;DHT22;35047;37.588;-122.048;2023-12-14T13:02:42;12.00;78.80
49222;DHT22;35047;37.588;-122.048;2023-12-14T13:05:10;11.90;78.70
49222;DHT22;35047;37.588;-122.048;2023-12-14T13:07:37;11.90;78.60
49222;DHT22;35047;37.588;-122.048;2023-12-14T13:10:06;11.90;78.40
49222;DHT22;35047;37.588;-122.048;2023-12-14T13:12:33;11.90;78.30
49222;DHT22;35047;37.588;-122.048;2023-12-14T13:15:00;11.90;78.20
49222;DHT22;35047;37.588;-122.048;2023-12-14T13:17:26;11.80;78.30
49222;DHT22;35047;37.588;-122.048;2023-12-14T13:19:53;11.80;78.20
49222;DHT22;35047;37.588;-122.048;2023-12-14T13:22:19;11.80;78.50
49222;DHT22;35047;37.588;-122.048;2023-12-14T13:24:48;11.80;78.20
49222;DHT22;35047;37.588;-122.048;2023-12-14T13:27:15;11.80;78.30
49222;DHT22;35047;37.588;-122.048;2023-12-14T13:29:42;11.80;78.40
49222;DHT22;35047;37.588;-122.048;2023-12-14T13:32:09;11.70;78.20
49222;DHT22;35047;37.588;-122.048;2023-12-14T13:34:36;11.70;78.20
49222;DHT22;35047;37.588;-122.048;2023-12-14T13:37:03;11.70;77.90
49222;DHT22;35047;37.588;-122.048;2023-12-14T13:39:32;11.70;78.00
49222;DHT22;35047;37.588;-122.048;2023-12-14T13:42:00;11.70;78.00
49222;DHT22;35047;37.588;-122.048;2023-12-14T13:44:27;11.70;77.80
49222;DHT22;35047;37.588;-122.048;2023-12-14T13:46:53;11.60;77.70
49222;DHT22;35047;37.588;-122.048;2023-12-14T13:49:20;11.60;77.70
49222;DHT22;35047;37.588;-122.048;2023-12-14T13:51:46;11.60;77.50
49222;DHT22;35047;37.588;-122.048;2023-12-14T13:54:12;11.60;77.60
49222;DHT22;35047;37.588;-122.048;2023-12-14T13:56:39;11.60;77.70
49222;DHT22;35047;37.588;-122.048;2023-12-14T13:59:06;11.50;77.80
49222;DHT22;35047;37.588;-122.048;2023-12-14T14:01:32;11.50;77.90
49222;DHT22;35047;37.588;-122.048;2023-12-14T14:03:59;11.50;78.00
49222;DHT22;35047;37.588;-122.048;2023-12-14T14:06:25;11.50;78.00
49222;DHT22;35047;37.588;-122.048;2023-12-14T14:08:51;11.50;77.90
49222;DHT22;35047;37.588;-122.048;2023-12-14T14:11:18;11.40;77.60
49222;DHT22;35047;37.588;-122.048;2023-12-14T14:13:45;11.40;77.50
49222;DHT22;35047;37.588;-122.048;2023-12-14T14:16:12;11.50;77.60
49222;DHT22;35047;37.588;-122.048;2023-12-14T14:18:38;11.40;77.70
49222;DHT22;35047;37.588;-122.048;2023-12-14T14:21:05;11.40;77.90
49222;DHT22;35047;37.588;-122.048;2023-12-14T14:23:35;11.40;77.60
49222;DHT22;35047;37.588;-122.048;2023-12-14T14:26:01;11.40;77.30
49222;DHT22;35047;37.588;-122.048;2023-12-14T14:28:28;11.40;77.40
49222;DHT22;35047;37.588;-122.048;2023-12-14T14:30:54;11.40;77.80
49222;DHT22;35047;37.588;-122.048;2023-12-14T14:33:21;11.40;77.90
49222;DHT22;35047;37.588;-122.048;2023-12-14T14:35:48;11.30;78.00
49222;DHT22;35047;37.588;-122.048;2023-12-14T14:38:15;11.40;78.00
49222;DHT22;35047;37.588;-122.048;2023-12-14T14:40:42;11.30;78.20
49222;DHT22;35047;37.588;-122.048;2023-12-14T14:43:09;11.30;78.20
49222;DHT22;35047;37.588;-122.048;2023-12-14T14:45:35;11.30;78.30
49222;DHT22;35047;37.588;-122.048;2023-12-14T14:48:04;11.30;78.10